sensor_id;sensor_type;location;lat;lon;timestamp;P1;durP1;ratioP1;P2;durP2;ratioP2
77012;SDS011;67260;53.130;17.982;2023-04-16T00:00:34;8.10;;;5.70;;
77012;SDS011;67260;53.130;17.982;2023-04-16T00:03:20;8.40;;;5.40;;
77012;SDS011;67260;53.130;17.982;2023-04-16T00:05:46;7.70;;;5.70;;
77012;SDS011;67260;53.130;17.982;2023-04-16T00:08:12;8.50;;;5.60;;
77012;SDS011;67260;53.130;17.982;2023-04-16T00:10:38;9.00;;;6.20;;
77012;SDS011;67260;53.130;17.982;2023-04-16T00:13:04;8.40;;;5.90;;
77012;SDS011;67260;53.130;17.982;2023-04-16T00:15:30;7.80;;;5.30;;
77012;SDS011;67260;53.130;17.982;2023-04-16T00:17:56;7.10;;;5.20;;
77012;SDS011;67260;53.130;17.982;2023-04-16T00:20:22;7.40;;;5.00;;
77012;SDS011;67260;53.130;17.982;2023-04-16T00:22:48;8.50;;;5.60;;
77012;SDS011;67260;53.130;17.982;2023-04-16T00:25:15;7.40;;;5.40;;
77012;SDS011;67260;53.130;17.982;2023-04-16T00:27:41;8.90;;;5.60;;
77012;SDS011;67260;53.130;17.982;2023-04-16T00:30:09;7.60;;;5.30;;
77012;SDS011;67260;53.130;17.982;2023-04-16T00:32:35;7.30;;;5.30;;
77012;SDS011;67260;53.130;17.982;2023-04-16T00:37:27;7.70;;;5.00;;
77012;SDS011;67260;53.130;17.982;2023-04-16T00:39:54;11.30;;;6.60;;
77012;SDS011;67260;53.130;17.982;2023-04-16T00:42:21;10.20;;;6.20;;
77012;SDS011;67260;53.130;17.982;2023-04-16T00:44:47;7.30;;;4.80;;
77012;SDS011;67260;53.130;17.982;2023-04-16T00:47:14;8.30;;;5.30;;
77012;SDS011;67260;53.130;17.982;2023-04-16T00:49:42;7.20;;;5.10;;
77012;SDS011;67260;53.130;17.982;2023-04-16T00:52:09;9.80;;;6.00;;
77012;SDS011;67260;53.130;17.982;2023-04-16T00:54:36;7.70;;;5.40;;
77012;SDS011;67260;53.130;17.982;2023-04-16T00:57:02;8.00;;;5.40;;
77012;SDS011;67260;53.130;17.982;2023-04-16T00:59:29;8.40;;;5.70;;
77012;SDS011;67260;53.130;17.982;2023-04-16T01:01:56;9.10;;;6.10;;
77012;SDS011;67260;53.130;17.982;2023-04-16T01:04:22;9.50;;;5.70;;
77012;SDS011;67260;53.130;17.982;2023-04-16T01:06:50;7.80;;;5.70;;
77012;SDS011;67260;53.130;17.982;2023-04-16T01:09:16;11.30;;;6.40;;
77012;SDS011;67260;53.130;17.982;2023-04-16T01:11:42;9.40;;;6.00;;
77012;SDS011;67260;53.130;17.982;2023-04-16T01:14:08;12.60;;;6.30;;
77012;SDS011;67260;53.130;17.982;2023-04-16T01:16:34;9.10;;;6.10;;
77012;SDS011;67260;53.130;17.982;2023-04-16T01:19:03;8.70;;;6.00;;
77012;SDS011;67260;53.130;17.982;2023-04-16T01:21:29;8.10;;;6.20;;
77012;SDS011;67260;53.130;17.982;2023-04-16T01:23:56;8.00;;;5.30;;
77012;SDS011;67260;53.130;17.982;2023-04-16T01:26:22;8.80;;;6.20;;
77012;SDS011;67260;53.130;17.982;2023-04-16T01:28:48;9.70;;;5.70;;
77012;SDS011;67260;53.130;17.982;2023-04-16T01:31:14;7.40;;;5.60;;
77012;SDS011;67260;53.130;17.982;2023-04-16T01:33:56;9.00;;;6.10;;
77012;SDS011;67260;53.130;17.982;2023-04-16T01:36:22;9.40;;;5.90;;
77012;SDS011;67260;53.130;17.982;2023-04-16T01:38:48;8.10;;;5.80;;
77012;SDS011;67260;53.130;17.982;2023-04-16T01:41:14;8.20;;;6.00;;
77012;SDS011;67260;53.130;17.982;2023-04-16T01:48:38;8.80;;;5.70;;
77012;SDS011;67260;53.130;17.982;2023-04-16T01:51:04;8.30;;;6.10;;
77012;SDS011;67260;53.130;17.982;2023-04-16T01:53:30;9.30;;;6.30;;
77012;SDS011;67260;53.130;17.982;2023-04-16T01:55:56;8.90;;;6.30;;
77012;SDS011;67260;53.130;17.982;2023-04-16T01:58:23;8.80;;;5.90;;
77012;SDS011;67260;53.130;17.982;2023-04-16T02:00:49;8.00;;;6.10;;
77012;SDS011;67260;53.130;17.982;2023-04-16T02:03:15;9.00;;;6.40;;
77012;SDS011;67260;53.130;17.982;2023-04-16T02:05:42;11.20;;;6.70;;
77012;SDS011;67260;53.130;17.982;2023-04-16T02:08:08;8.90;;;6.20;;
77012;SDS011;67260;53.130;17.982;2023-04-16T02:10:34;9.30;;;6.60;;
77012;SDS011;67260;53.130;17.982;2023-04-16T02:13:00;8.10;;;5.90;;
77012;SDS011;67260;53.130;17.982;2023-04-16T02:15:26;8.80;;;6.10;;
77012;SDS011;67260;53.130;17.982;2023-04-16T02:17:53;9.30;;;6.50;;
77012;SDS011;67260;53.130;17.982;2023-04-16T02:20:22;9.00;;;6.60;;
77012;SDS011;67260;53.130;17.982;2023-04-16T02:22:53;8.60;;;5.70;;
77012;SDS011;67260;53.130;17.982;2023-04-16T02:25:21;9.40;;;6.40;;
77012;SDS011;67260;53.130;17.982;2023-04-16T02:27:49;8.30;;;6.40;;
77012;SDS011;67260;53.130;17.982;2023-04-16T02:30:36;9.70;;;5.90;;
77012;SDS011;67260;53.130;17.982;2023-04-16T02:33:03;9.20;;;6.90;;
77012;SDS011;67260;53.130;17.982;2023-04-16T02:35:36;10.00;;;6.60;;
77012;SDS011;67260;53.130;17.982;2023-04-16T02:38:03;10.20;;;6.70;;
77012;SDS011;67260;53.130;17.982;2023-04-16T02:40:31;10.60;;;7.10;;
77012;SDS011;67260;53.130;17.982;2023-04-16T02:42:58;9.50;;;6.30;;
77012;SDS011;67260;53.130;17.982;2023-04-16T02:45:25;9.10;;;6.20;;
77012;SDS011;67260;53.130;17.982;2023-04-16T02:47:51;8.90;;;6.40;;
77012;SDS011;67260;53.130;17.982;2023-04-16T02:50:17;10.20;;;6.20;;
77012;SDS011;67260;53.130;17.982;2023-04-16T02:52:44;8.40;;;6.30;;
77012;SDS011;67260;53.130;17.982;2023-04-16T02:55:10;8.60;;;6.40;;
77012;SDS011;67260;53.130;17.982;2023-04-16T02:57:36;8.30;;;6.30;;
77012;SDS011;67260;53.130;17.982;2023-04-16T03:00:02;9.10;;;6.30;;
77012;SDS011;67260;53.130;17.982;2023-04-16T03:02:31;10.40;;;6.60;;
77012;SDS011;67260;53.130;17.982;2023-04-16T03:04:57;8.90;;;5.80;;
77012;SDS011;67260;53.130;17.982;2023-04-16T03:07:23;8.70;;;5.40;;
77012;SDS011;67260;53.130;17.982;2023-04-16T03:09:50;8.40;;;5.60;;
77012;SDS011;67260;53.130;17.982;2023-04-16T03:12:16;8.20;;;5.50;;
77012;SDS011;67260;53.130;17.982;2023-04-16T03:14:44;7.50;;;5.50;;
77012;SDS011;67260;53.130;17.982;2023-04-16T03:17:10;9.20;;;5.80;;
77012;SDS011;67260;53.130;17.982;2023-04-16T03:19:36;7.90;;;5.60;;
77012;SDS011;67260;53.130;17.982;2023-04-16T03:22:03;8.70;;;6.20;;
77012;SDS011;67260;53.130;17.982;2023-04-16T03:24:29;8.80;;;5.90;;
77012;SDS011;67260;53.130;17.982;2023-04-16T03:26:58;8.80;;;5.50;;
77012;SDS011;67260;53.130;17.982;2023-04-16T03:29:24;6.00;;;3.90;;
77012;SDS011;67260;53.130;17.982;2023-04-16T03:31:52;7.90;;;4.80;;
77012;SDS011;67260;53.130;17.982;2023-04-16T03:34:18;7.40;;;5.30;;
77012;SDS011;67260;53.130;17.982;2023-04-16T03:39:10;7.50;;;5.10;;
77012;SDS011;67260;53.130;17.982;2023-04-16T03:41:36;9.50;;;5.90;;
77012;SDS011;67260;53.130;17.982;2023-04-16T03:44:02;7.90;;;5.60;;
77012;SDS011;67260;53.130;17.982;2023-04-16T03:46:28;8.20;;;5.60;;
77012;SDS011;67260;53.130;17.982;2023-04-16T03:48:55;7.00;;;5.60;;
77012;SDS011;67260;53.130;17.982;2023-04-16T03:51:21;6.70;;;4.60;;
77012;SDS011;67260;53.130;17.982;2023-04-16T03:53:47;7.60;;;5.70;;
77012;SDS011;67260;53.130;17.982;2023-04-16T03:56:14;8.80;;;5.60;;
77012;SDS011;67260;53.130;17.982;2023-04-16T03:58:40;8.30;;;5.90;;
77012;SDS011;67260;53.130;17.982;2023-04-16T04:01:07;8.60;;;5.50;;
77012;SDS011;67260;53.130;17.982;2023-04-16T04:03:34;7.60;;;5.40;;
77012;SDS011;67260;53.130;17.982;2023-04-16T04:06:05;7.00;;;5.00;;
77012;SDS011;67260;53.130;17.982;2023-04-16T04:08:33;11.30;;;8.30;;
77012;SDS011;67260;53.130;17.982;2023-04-16T04:10:59;9.10;;;6.20;;
77012;SDS011;67260;53.130;17.982;2023-04-16T04:13:25;9.50;;;5.30;;
77012;SDS011;67260;53.130;17.982;2023-04-16T04:15:52;8.00;;;4.30;;
77012;SDS011;67260;53.130;17.982;2023-04-16T04:18:18;7.50;;;5.60;;
77012;SDS011;67260;53.130;17.982;2023-04-16T04:20:44;8.50;;;5.80;;
77012;SDS011;67260;53.130;17.982;2023-04-16T04:23:13;8.00;;;5.60;;
77012;SDS011;67260;53.130;17.982;2023-04-16T04:28:06;8.20;;;5.60;;
77012;SDS011;67260;53.130;17.982;2023-04-16T04:30:32;8.20;;;5.10;;
77012;SDS011;67260;53.130;17.982;2023-04-16T04:33:01;8.60;;;5.30;;
77012;SDS011;67260;53.130;17.982;2023-04-16T04:35:27;7.50;;;5.30;;
77012;SDS011;67260;53.130;17.982;2023-04-16T04:37:54;8.30;;;5.50;;
77012;SDS011;67260;53.130;17.982;2023-04-16T04:40:21;8.10;;;5.10;;
77012;SDS011;67260;53.130;17.982;2023-04-16T04:42:47;7.30;;;5.20;;
77012;SDS011;67260;53.130;17.982;2023-04-16T04:45:14;7.90;;;4.90;;
77012;SDS011;67260;53.130;17.982;2023-04-16T04:47:40;7.70;;;5.00;;
77012;SDS011;67260;53.130;17.982;2023-04-16T04:50:07;7.50;;;5.50;;
77012;SDS011;67260;53.130;17.982;2023-04-16T04:52:33;8.00;;;5.20;;
77012;SDS011;67260;53.130;17.982;2023-04-16T04:57:26;6.60;;;4.50;;
77012;SDS011;67260;53.130;17.982;2023-04-16T04:59:53;7.40;;;5.00;;
77012;SDS011;67260;53.130;17.982;2023-04-16T05:02:21;7.00;;;4.90;;
77012;SDS011;67260;53.130;17.982;2023-04-16T05:04:47;6.30;;;4.50;;
77012;SDS011;67260;53.130;17.982;2023-04-16T05:07:13;7.30;;;4.60;;
77012;SDS011;67260;53.130;17.982;2023-04-16T05:09:39;6.50;;;4.50;;
77012;SDS011;67260;53.130;17.982;2023-04-16T05:12:05;8.00;;;5.10;;
77012;SDS011;67260;53.130;17.982;2023-04-16T05:14:31;8.30;;;4.70;;
77012;SDS011;67260;53.130;17.982;2023-04-16T05:16:57;6.50;;;4.70;;
77012;SDS011;67260;53.130;17.982;2023-04-16T05:19:23;8.80;;;4.80;;
77012;SDS011;67260;53.130;17.982;2023-04-16T05:21:50;6.40;;;4.20;;
77012;SDS011;67260;53.130;17.982;2023-04-16T05:24:18;6.30;;;3.60;;
77012;SDS011;67260;53.130;17.982;2023-04-16T05:26:44;7.30;;;4.60;;
77012;SDS011;67260;53.130;17.982;2023-04-16T05:29:10;8.40;;;5.30;;
77012;SDS011;67260;53.130;17.982;2023-04-16T05:31:38;7.70;;;5.00;;
77012;SDS011;67260;53.130;17.982;2023-04-16T05:34:04;7.70;;;5.30;;
77012;SDS011;67260;53.130;17.982;2023-04-16T05:36:30;8.20;;;5.30;;
77012;SDS011;67260;53.130;17.982;2023-04-16T05:38:56;6.60;;;4.40;;
77012;SDS011;67260;53.130;17.982;2023-04-16T05:41:22;7.70;;;5.10;;
77012;SDS011;67260;53.130;17.982;2023-04-16T05:43:48;9.60;;;6.10;;
77012;SDS011;67260;53.130;17.982;2023-04-16T05:46:14;8.00;;;5.60;;
77012;SDS011;67260;53.130;17.982;2023-04-16T05:48:40;8.10;;;5.30;;
77012;SDS011;67260;53.130;17.982;2023-04-16T05:51:06;10.70;;;6.30;;
77012;SDS011;67260;53.130;17.982;2023-04-16T05:53:32;12.10;;;7.20;;
77012;SDS011;67260;53.130;17.982;2023-04-16T05:55:58;11.90;;;6.20;;
77012;SDS011;67260;53.130;17.982;2023-04-16T05:58:24;8.70;;;5.70;;
77012;SDS011;67260;53.130;17.982;2023-04-16T06:00:50;8.90;;;5.50;;
77012;SDS011;67260;53.130;17.982;2023-04-16T06:03:16;11.20;;;6.10;;
77012;SDS011;67260;53.130;17.982;2023-04-16T06:05:42;8.80;;;5.60;;
77012;SDS011;67260;53.130;17.982;2023-04-16T06:08:10;9.70;;;6.30;;
77012;SDS011;67260;53.130;17.982;2023-04-16T06:10:36;9.60;;;5.60;;
77012;SDS011;67260;53.130;17.982;2023-04-16T06:13:02;20.70;;;9.80;;
77012;SDS011;67260;53.130;17.982;2023-04-16T06:15:28;9.50;;;6.00;;
77012;SDS011;67260;53.130;17.982;2023-04-16T06:17:54;8.20;;;5.60;;
77012;SDS011;67260;53.130;17.982;2023-04-16T06:20:20;9.30;;;5.80;;
77012;SDS011;67260;53.130;17.982;2023-04-16T06:22:46;9.10;;;6.40;;
77012;SDS011;67260;53.130;17.982;2023-04-16T06:25:12;10.00;;;5.80;;
77012;SDS011;67260;53.130;17.982;2023-04-16T06:27:38;9.70;;;6.00;;
77012;SDS011;67260;53.130;17.982;2023-04-16T06:30:09;7.90;;;5.30;;
77012;SDS011;67260;53.130;17.982;2023-04-16T06:32:37;9.40;;;5.90;;
77012;SDS011;67260;53.130;17.982;2023-04-16T06:35:03;9.40;;;6.00;;
77012;SDS011;67260;53.130;17.982;2023-04-16T06:37:29;10.60;;;6.10;;
77012;SDS011;67260;53.130;17.982;2023-04-16T06:39:55;9.80;;;6.80;;
77012;SDS011;67260;53.130;17.982;2023-04-16T06:42:21;10.10;;;6.70;;
77012;SDS011;67260;53.130;17.982;2023-04-16T06:44:48;8.50;;;5.60;;
77012;SDS011;67260;53.130;17.982;2023-04-16T06:47:14;10.10;;;6.40;;
77012;SDS011;67260;53.130;17.982;2023-04-16T06:49:40;10.50;;;6.20;;
77012;SDS011;67260;53.130;17.982;2023-04-16T06:52:06;10.50;;;6.40;;
77012;SDS011;67260;53.130;17.982;2023-04-16T06:54:32;9.90;;;6.60;;
77012;SDS011;67260;53.130;17.982;2023-04-16T06:56:59;9.40;;;6.40;;
77012;SDS011;67260;53.130;17.982;2023-04-16T07:01:51;10.80;;;6.80;;
77012;SDS011;67260;53.130;17.982;2023-04-16T07:04:17;10.70;;;6.30;;
77012;SDS011;67260;53.130;17.982;2023-04-16T07:06:44;11.30;;;7.50;;
77012;SDS011;67260;53.130;17.982;2023-04-16T07:09:11;10.60;;;6.60;;
77012;SDS011;67260;53.130;17.982;2023-04-16T07:11:37;11.60;;;8.20;;
77012;SDS011;67260;53.130;17.982;2023-04-16T07:14:03;12.90;;;8.20;;
77012;SDS011;67260;53.130;17.982;2023-04-16T07:16:33;11.80;;;7.70;;
77012;SDS011;67260;53.130;17.982;2023-04-16T07:18:59;16.10;;;9.50;;
77012;SDS011;67260;53.130;17.982;2023-04-16T07:21:25;15.10;;;9.30;;
77012;SDS011;67260;53.130;17.982;2023-04-16T07:23:54;14.90;;;9.50;;
77012;SDS011;67260;53.130;17.982;2023-04-16T07:26:21;16.60;;;9.40;;
77012;SDS011;67260;53.130;17.982;2023-04-16T07:28:47;16.20;;;9.50;;
77012;SDS011;67260;53.130;17.982;2023-04-16T07:31:13;12.50;;;8.60;;
77012;SDS011;67260;53.130;17.982;2023-04-16T07:33:39;12.40;;;8.90;;
77012;SDS011;67260;53.130;17.982;2023-04-16T07:36:05;13.10;;;8.80;;
77012;SDS011;67260;53.130;17.982;2023-04-16T07:38:31;15.30;;;8.70;;
77012;SDS011;67260;53.130;17.982;2023-04-16T07:40:59;14.00;;;9.50;;
77012;SDS011;67260;53.130;17.982;2023-04-16T07:43:27;14.80;;;8.60;;
77012;SDS011;67260;53.130;17.982;2023-04-16T07:45:53;14.80;;;10.30;;
77012;SDS011;67260;53.130;17.982;2023-04-16T07:50:46;15.30;;;9.60;;
77012;SDS011;67260;53.130;17.982;2023-04-16T07:53:12;15.80;;;9.80;;
77012;SDS011;67260;53.130;17.982;2023-04-16T07:55:38;14.40;;;10.10;;
77012;SDS011;67260;53.130;17.982;2023-04-16T07:58:04;15.50;;;10.10;;
77012;SDS011;67260;53.130;17.982;2023-04-16T08:00:33;14.90;;;9.80;;
77012;SDS011;67260;53.130;17.982;2023-04-16T08:02:59;13.30;;;8.90;;
77012;SDS011;67260;53.130;17.982;2023-04-16T08:05:25;13.00;;;8.30;;
77012;SDS011;67260;53.130;17.982;2023-04-16T08:07:51;12.50;;;8.00;;
77012;SDS011;67260;53.130;17.982;2023-04-16T08:10:17;14.10;;;9.70;;
77012;SDS011;67260;53.130;17.982;2023-04-16T08:12:44;15.30;;;10.30;;
77012;SDS011;67260;53.130;17.982;2023-04-16T08:15:10;16.70;;;10.70;;
77012;SDS011;67260;53.130;17.982;2023-04-16T08:17:36;14.10;;;9.60;;
77012;SDS011;67260;53.130;17.982;2023-04-16T08:20:03;13.40;;;9.10;;
77012;SDS011;67260;53.130;17.982;2023-04-16T08:22:31;14.40;;;9.60;;
77012;SDS011;67260;53.130;17.982;2023-04-16T08:24:57;14.40;;;9.50;;
77012;SDS011;67260;53.130;17.982;2023-04-16T08:27:23;13.80;;;8.40;;
77012;SDS011;67260;53.130;17.982;2023-04-16T08:29:50;14.70;;;9.20;;
77012;SDS011;67260;53.130;17.982;2023-04-16T08:32:19;12.60;;;8.40;;
77012;SDS011;67260;53.130;17.982;2023-04-16T08:34:48;15.80;;;10.20;;
77012;SDS011;67260;53.130;17.982;2023-04-16T08:37:14;13.60;;;9.20;;
77012;SDS011;67260;53.130;17.982;2023-04-16T08:39:41;14.60;;;10.10;;
77012;SDS011;67260;53.130;17.982;2023-04-16T08:42:09;15.90;;;10.40;;
77012;SDS011;67260;53.130;17.982;2023-04-16T08:44:47;16.70;;;10.90;;
77012;SDS011;67260;53.130;17.982;2023-04-16T08:47:16;16.90;;;10.80;;
77012;SDS011;67260;53.130;17.982;2023-04-16T08:49:52;20.30;;;11.90;;
77012;SDS011;67260;53.130;17.982;2023-04-16T08:52:21;19.30;;;11.60;;
77012;SDS011;67260;53.130;17.982;2023-04-16T08:54:56;16.10;;;10.60;;
77012;SDS011;67260;53.130;17.982;2023-04-16T08:57:38;15.90;;;10.50;;
77012;SDS011;67260;53.130;17.982;2023-04-16T09:00:24;17.10;;;11.50;;
77012;SDS011;67260;53.130;17.982;2023-04-16T09:02:51;15.70;;;10.60;;
77012;SDS011;67260;53.130;17.982;2023-04-16T09:05:27;15.10;;;9.90;;
77012;SDS011;67260;53.130;17.982;2023-04-16T09:07:55;15.90;;;9.60;;
77012;SDS011;67260;53.130;17.982;2023-04-16T09:10:21;12.70;;;8.10;;
77012;SDS011;67260;53.130;17.982;2023-04-16T09:12:54;15.00;;;9.00;;
77012;SDS011;67260;53.130;17.982;2023-04-16T09:15:30;12.10;;;7.90;;
77012;SDS011;67260;53.130;17.982;2023-04-16T09:17:58;12.80;;;8.40;;
77012;SDS011;67260;53.130;17.982;2023-04-16T09:20:25;14.80;;;9.30;;
77012;SDS011;67260;53.130;17.982;2023-04-16T09:22:51;14.40;;;9.00;;
77012;SDS011;67260;53.130;17.982;2023-04-16T09:25:23;15.30;;;9.40;;
77012;SDS011;67260;53.130;17.982;2023-04-16T09:27:49;15.50;;;8.90;;
77012;SDS011;67260;53.130;17.982;2023-04-16T09:32:52;13.70;;;9.00;;
77012;SDS011;67260;53.130;17.982;2023-04-16T09:35:44;17.20;;;10.90;;
77012;SDS011;67260;53.130;17.982;2023-04-16T09:38:14;15.80;;;9.60;;
77012;SDS011;67260;53.130;17.982;2023-04-16T09:40:40;17.30;;;11.00;;
77012;SDS011;67260;53.130;17.982;2023-04-16T09:43:13;16.50;;;10.70;;
77012;SDS011;67260;53.130;17.982;2023-04-16T09:45:47;19.90;;;12.80;;
77012;SDS011;67260;53.130;17.982;2023-04-16T09:48:15;17.90;;;11.60;;
77012;SDS011;67260;53.130;17.982;2023-04-16T09:50:50;19.00;;;11.40;;
77012;SDS011;67260;53.130;17.982;2023-04-16T09:53:26;16.30;;;11.00;;
77012;SDS011;67260;53.130;17.982;2023-04-16T09:56:02;20.60;;;10.80;;
77012;SDS011;67260;53.130;17.982;2023-04-16T09:58:31;15.50;;;10.30;;
77012;SDS011;67260;53.130;17.982;2023-04-16T10:01:07;15.40;;;10.20;;
77012;SDS011;67260;53.130;17.982;2023-04-16T10:03:38;14.40;;;9.70;;
77012;SDS011;67260;53.130;17.982;2023-04-16T10:06:07;18.30;;;10.30;;
77012;SDS011;67260;53.130;17.982;2023-04-16T10:08:42;14.80;;;9.60;;
77012;SDS011;67260;53.130;17.982;2023-04-16T10:11:13;15.10;;;8.80;;
77012;SDS011;67260;53.130;17.982;2023-04-16T10:13:40;14.80;;;8.60;;
77012;SDS011;67260;53.130;17.982;2023-04-16T10:16:09;15.20;;;9.50;;
77012;SDS011;67260;53.130;17.982;2023-04-16T10:18:39;15.20;;;10.60;;
77012;SDS011;67260;53.130;17.982;2023-04-16T10:21:07;17.60;;;10.50;;
77012;SDS011;67260;53.130;17.982;2023-04-16T10:23:39;16.30;;;11.10;;
77012;SDS011;67260;53.130;17.982;2023-04-16T10:26:06;16.50;;;10.30;;
77012;SDS011;67260;53.130;17.982;2023-04-16T10:28:32;11.80;;;7.80;;
77012;SDS011;67260;53.130;17.982;2023-04-16T10:31:01;12.70;;;7.10;;
77012;SDS011;67260;53.130;17.982;2023-04-16T10:33:31;9.30;;;5.70;;
77012;SDS011;67260;53.130;17.982;2023-04-16T10:36:15;10.00;;;5.80;;
77012;SDS011;67260;53.130;17.982;2023-04-16T10:38:46;8.90;;;5.80;;
77012;SDS011;67260;53.130;17.982;2023-04-16T10:41:14;9.80;;;6.50;;
77012;SDS011;67260;53.130;17.982;2023-04-16T10:48:45;9.70;;;5.70;;
77012;SDS011;67260;53.130;17.982;2023-04-16T10:51:24;11.20;;;6.40;;
77012;SDS011;67260;53.130;17.982;2023-04-16T10:53:56;10.60;;;6.80;;
77012;SDS011;67260;53.130;17.982;2023-04-16T10:56:37;10.50;;;6.30;;
77012;SDS011;67260;53.130;17.982;2023-04-16T10:59:03;11.60;;;6.90;;
77012;SDS011;67260;53.130;17.982;2023-04-16T11:04:24;11.00;;;6.10;;
77012;SDS011;67260;53.130;17.982;2023-04-16T11:12:39;9.60;;;6.80;;
77012;SDS011;67260;53.130;17.982;2023-04-16T11:15:13;10.60;;;6.00;;
77012;SDS011;67260;53.130;17.982;2023-04-16T11:17:47;10.80;;;6.40;;
77012;SDS011;67260;53.130;17.982;2023-04-16T11:20:20;11.50;;;6.70;;
77012;SDS011;67260;53.130;17.982;2023-04-16T11:22:50;11.70;;;7.10;;
77012;SDS011;67260;53.130;17.982;2023-04-16T11:25:22;12.20;;;7.50;;
77012;SDS011;67260;53.130;17.982;2023-04-16T11:27:54;12.60;;;8.40;;
77012;SDS011;67260;53.130;17.982;2023-04-16T11:30:30;12.40;;;7.40;;
77012;SDS011;67260;53.130;17.982;2023-04-16T11:33:01;12.40;;;7.10;;
77012;SDS011;67260;53.130;17.982;2023-04-16T11:35:27;32.70;;;21.60;;
77012;SDS011;67260;53.130;17.982;2023-04-16T11:38:00;12.60;;;7.20;;
77012;SDS011;67260;53.130;17.982;2023-04-16T11:40:30;15.90;;;11.00;;
77012;SDS011;67260;53.130;17.982;2023-04-16T11:43:30;19.10;;;12.80;;
77012;SDS011;67260;53.130;17.982;2023-04-16T11:45:57;16.90;;;10.70;;
77012;SDS011;67260;53.130;17.982;2023-04-16T11:48:49;21.70;;;13.00;;
77012;SDS011;67260;53.130;17.982;2023-04-16T11:51:19;16.30;;;10.10;;
77012;SDS011;67260;53.130;17.982;2023-04-16T11:53:47;15.60;;;10.20;;
77012;SDS011;67260;53.130;17.982;2023-04-16T11:56:24;13.60;;;9.00;;
77012;SDS011;67260;53.130;17.982;2023-04-16T12:01:39;14.70;;;8.90;;
77012;SDS011;67260;53.130;17.982;2023-04-16T12:04:06;14.90;;;8.50;;
77012;SDS011;67260;53.130;17.982;2023-04-16T12:06:33;14.50;;;9.00;;
77012;SDS011;67260;53.130;17.982;2023-04-16T12:08:59;11.60;;;6.60;;
77012;SDS011;67260;53.130;17.982;2023-04-16T12:11:49;11.80;;;7.40;;
77012;SDS011;67260;53.130;17.982;2023-04-16T12:14:15;13.60;;;10.00;;
77012;SDS011;67260;53.130;17.982;2023-04-16T12:16:41;14.70;;;8.80;;
77012;SDS011;67260;53.130;17.982;2023-04-16T12:19:10;21.70;;;12.40;;
77012;SDS011;67260;53.130;17.982;2023-04-16T12:24:14;15.70;;;10.00;;
77012;SDS011;67260;53.130;17.982;2023-04-16T12:26:42;18.30;;;10.90;;
77012;SDS011;67260;53.130;17.982;2023-04-16T12:29:18;15.50;;;9.10;;
77012;SDS011;67260;53.130;17.982;2023-04-16T12:31:47;19.80;;;12.70;;
77012;SDS011;67260;53.130;17.982;2023-04-16T12:34:13;16.10;;;9.40;;
77012;SDS011;67260;53.130;17.982;2023-04-16T12:39:07;13.80;;;8.30;;
77012;SDS011;67260;53.130;17.982;2023-04-16T12:41:35;18.80;;;12.30;;
77012;SDS011;67260;53.130;17.982;2023-04-16T12:46:43;14.20;;;9.70;;
77012;SDS011;67260;53.130;17.982;2023-04-16T12:49:10;13.30;;;8.40;;
77012;SDS011;67260;53.130;17.982;2023-04-16T12:51:36;20.10;;;12.60;;
77012;SDS011;67260;53.130;17.982;2023-04-16T12:54:04;16.50;;;10.80;;
77012;SDS011;67260;53.130;17.982;2023-04-16T12:56:34;14.60;;;8.70;;
77012;SDS011;67260;53.130;17.982;2023-04-16T12:59:01;16.40;;;9.80;;
77012;SDS011;67260;53.130;17.982;2023-04-16T13:01:27;24.40;;;16.00;;
77012;SDS011;67260;53.130;17.982;2023-04-16T13:03:53;32.50;;;17.60;;
77012;SDS011;67260;53.130;17.982;2023-04-16T13:06:19;27.80;;;15.40;;
77012;SDS011;67260;53.130;17.982;2023-04-16T13:08:45;20.70;;;10.30;;
77012;SDS011;67260;53.130;17.982;2023-04-16T13:11:11;32.30;;;16.30;;
77012;SDS011;67260;53.130;17.982;2023-04-16T13:13:38;22.90;;;13.60;;
77012;SDS011;67260;53.130;17.982;2023-04-16T13:16:04;15.30;;;9.00;;
77012;SDS011;67260;53.130;17.982;2023-04-16T13:18:31;22.50;;;14.20;;
77012;SDS011;67260;53.130;17.982;2023-04-16T13:20:58;14.90;;;8.10;;
77012;SDS011;67260;53.130;17.982;2023-04-16T13:23:24;12.00;;;7.10;;
77012;SDS011;67260;53.130;17.982;2023-04-16T13:25:50;11.50;;;7.20;;
77012;SDS011;67260;53.130;17.982;2023-04-16T13:28:16;11.90;;;6.90;;
77012;SDS011;67260;53.130;17.982;2023-04-16T13:30:42;11.40;;;6.80;;
77012;SDS011;67260;53.130;17.982;2023-04-16T13:33:08;10.40;;;6.50;;
77012;SDS011;67260;53.130;17.982;2023-04-16T13:35:35;11.10;;;6.00;;
77012;SDS011;67260;53.130;17.982;2023-04-16T13:38:01;12.30;;;6.20;;
77012;SDS011;67260;53.130;17.982;2023-04-16T13:40:30;10.30;;;5.90;;
77012;SDS011;67260;53.130;17.982;2023-04-16T13:42:56;11.80;;;7.30;;
77012;SDS011;67260;53.130;17.982;2023-04-16T13:45:23;11.60;;;6.70;;
77012;SDS011;67260;53.130;17.982;2023-04-16T13:47:50;11.40;;;6.90;;
77012;SDS011;67260;53.130;17.982;2023-04-16T13:50:16;11.50;;;7.20;;
77012;SDS011;67260;53.130;17.982;2023-04-16T13:52:42;9.90;;;6.10;;
77012;SDS011;67260;53.130;17.982;2023-04-16T13:55:08;10.70;;;6.20;;
77012;SDS011;67260;53.130;17.982;2023-04-16T13:57:34;7.40;;;4.30;;
77012;SDS011;67260;53.130;17.982;2023-04-16T14:00:01;7.00;;;3.70;;
77012;SDS011;67260;53.130;17.982;2023-04-16T14:02:30;6.50;;;3.90;;
77012;SDS011;67260;53.130;17.982;2023-04-16T14:04:56;6.40;;;3.20;;
77012;SDS011;67260;53.130;17.982;2023-04-16T14:07:23;6.50;;;3.80;;
77012;SDS011;67260;53.130;17.982;2023-04-16T14:09:52;5.50;;;2.70;;
77012;SDS011;67260;53.130;17.982;2023-04-16T14:12:19;5.00;;;3.30;;
77012;SDS011;67260;53.130;17.982;2023-04-16T14:14:45;21.60;;;11.00;;
77012;SDS011;67260;53.130;17.982;2023-04-16T14:17:11;5.30;;;3.40;;
77012;SDS011;67260;53.130;17.982;2023-04-16T14:19:37;7.00;;;3.90;;
77012;SDS011;67260;53.130;17.982;2023-04-16T14:22:04;7.10;;;4.40;;
77012;SDS011;67260;53.130;17.982;2023-04-16T14:24:31;6.40;;;3.40;;
77012;SDS011;67260;53.130;17.982;2023-04-16T14:26:57;5.30;;;3.40;;
77012;SDS011;67260;53.130;17.982;2023-04-16T14:29:27;7.80;;;6.00;;
77012;SDS011;67260;53.130;17.982;2023-04-16T14:31:53;6.60;;;3.20;;
77012;SDS011;67260;53.130;17.982;2023-04-16T14:34:20;24.10;;;13.10;;
77012;SDS011;67260;53.130;17.982;2023-04-16T14:36:46;8.30;;;5.00;;
77012;SDS011;67260;53.130;17.982;2023-04-16T14:39:14;6.10;;;4.20;;
77012;SDS011;67260;53.130;17.982;2023-04-16T14:41:40;9.50;;;6.00;;
77012;SDS011;67260;53.130;17.982;2023-04-16T14:44:06;7.50;;;3.70;;
77012;SDS011;67260;53.130;17.982;2023-04-16T14:46:33;5.90;;;3.50;;
77012;SDS011;67260;53.130;17.982;2023-04-16T14:48:59;7.90;;;4.40;;
77012;SDS011;67260;53.130;17.982;2023-04-16T14:51:25;5.80;;;3.40;;
77012;SDS011;67260;53.130;17.982;2023-04-16T14:53:52;6.90;;;4.40;;
77012;SDS011;67260;53.130;17.982;2023-04-16T14:56:18;7.40;;;3.90;;
77012;SDS011;67260;53.130;17.982;2023-04-16T14:58:44;6.80;;;3.50;;
77012;SDS011;67260;53.130;17.982;2023-04-16T15:01:11;6.50;;;3.90;;
77012;SDS011;67260;53.130;17.982;2023-04-16T15:03:39;5.70;;;3.50;;
77012;SDS011;67260;53.130;17.982;2023-04-16T15:06:06;8.30;;;4.10;;
77012;SDS011;67260;53.130;17.982;2023-04-16T15:08:33;6.50;;;4.30;;
77012;SDS011;67260;53.130;17.982;2023-04-16T15:10:59;6.00;;;3.50;;
77012;SDS011;67260;53.130;17.982;2023-04-16T15:13:25;6.60;;;3.80;;
77012;SDS011;67260;53.130;17.982;2023-04-16T15:16:01;8.40;;;3.90;;